Aviation Digital Data Service (ADDS)

Output produced by METARs form (1800 UTC 07 December 2021)
found at http://aviationweather.gov/metar/data/
 
Forecast for: KOLM (OLYMPIA , WA, US)
Text: KOLM 071720Z 0718/0818 21003KT 4SM BR OVC009
Forecast period: 1800 to 2100 UTC 07 December 2021
Forecast type: FROM: standard forecast or significant change
Winds: from the SSW (210 degrees) at 3 MPH (3 knots; 1.5 m/s)
Visibility: 4 miles (6 km)
Ceiling: 900 feet AGL
Clouds: overcast cloud deck at 900 feet AGL
Weather: BR  (mist)
Text: FM072100 20003KT 4SM BR OVC015
Forecast period: 2100 UTC 07 December 2021 to 0600 UTC 08 December 2021
Forecast type: FROM: standard forecast or significant change
Winds: from the SSW (200 degrees) at 3 MPH (3 knots; 1.5 m/s)
Visibility: 4 miles (6 km)
Ceiling: 1500 feet AGL
Clouds: overcast cloud deck at 1500 feet AGL
Weather: BR  (mist)
Text: FM080600 21014G20KT 4SM BR OVC008
Forecast period: 0600 to 1800 UTC 08 December 2021
Forecast type: FROM: standard forecast or significant change
Winds: from the SSW (210 degrees) at 16 MPH (14 knots; 7.2 m/s)
gusting to 23 MPH (20 knots; 10.3 m/s)
Visibility: 4 miles (6 km)
Ceiling: 800 feet AGL
Clouds: overcast cloud deck at 800 feet AGL
Weather: BR  (mist)